Home PIREPS Pireps

Flight BEL12249TR

  • Submitted By: AndrĂ© Vincent
  • Departure Airport: Lisboa / Portela (LPPT)
  • Arrival Airport: Basel-Mulhouse (LFSB)
  • Aircraft: YOUR CHOICE (YC)
  • Flight Time: 02.44
  • Date Submitted: 27/11/2017
  • Status: Accepted
Flight Details
Gross Revenue:
(25 load / € 0.00 per unit
€ 0.00
Fuel Cost:
(13078 fuel used @ 5.1 / unit)
€ 66,697.80

Additional Log Information:

View Log

Aircraft Used in flight is Boeing 737-800 sabena paint
12:15 Brakes are On
12:17 Brakes are Released
12:22 You Took off @ 214 Knots and Flaps at Position 2
Departure Weather
LPPT 271100Z 06008KT 340V090 CAVOK 13/05 Q1027rn
12:23 Landing Gear Up @ 219 Knots and 410 Feet
12:27 Below 10000 feet you are not allowed to go over 250 knots
14:53 Landing Gear Down @ 145 Knots and 2740 Feet
14:55 You Landed @ 105 Knots and with -550 Vertical Speed
Arrival Weather
LFSB 271330Z 24014KT 9999 BKN033 BKN040 BKN060 07/01 Q1024 NOSIGrn
14:55 Your Landing was very hard
14:59 Brakes are On
15:00 Brussels Bel-Track1.0.1.2

Route Map

Corporate About Us Our Team Vacancies Information Fleet Route Network Rules and Regulations Operations Flight Schedules Event Center Tours Partners IVAO Vatsim Acars dev FSCB

fb Users Online Belgium Jos Viville,
2 Pilot(s) and 171 Guest(s) Online
CMS by phpVMS - Design by Crazycreatives.com - Copyright © 2018 - Brussels Airlines Virtual